Terminal Aerodrome Forecast
Issued by NWS

Home | Current Version | Previous Version | Graphics & Text | Print | Product List | Glossary On
Versions: 1 2 3 4 5 6 7 8 9 10 11 12 13 14 15 16 17 18 19 20
000
FTUS42 KMHX 212300
TAFOAJ
TAF
KOAJ 212322Z 2200/2224 02010KT P6SM OVC060
     FM220200 03010KT P6SM VCSH OVC020
     FM220600 02010KT P6SM -RA OVC008
     FM220900 02010KT 4SM -RA OVC004
     FM221900 35005KT 4SM -DZ OVC004
      AMD LTD TO CLD VIS AND WIND=

USA.gov is the U.S. government's official web portal to all federal, state and local government web resources and services.